Terminal Aerodrome Forecast
Issued by NWS

Home | Current Version | Previous Version | Text Only | Print | Product List | Glossary On
Versions: 1 2 3 4 5 6 7 8 9 10 11 12 13 14 15 16 17 18 19 20 21 22 23
000
FTUS42 KFFC 210330 AAA
TAFRYY
TAF AMD
KRYY 210330Z 2104/2124 06003KT 4SM BR OVC012
     FM210600 00000KT 2SM BR OVC006
     FM211500 07004KT 3SM BR BKN007 OVC015
     FM211900 08006KT 6SM BR OVC015
      AMD NOT SKED 2104/2112=

USA.gov is the U.S. government's official web portal to all federal, state and local government web resources and services.